Airfield :
LOGIN :

Register | Disclaimer

   EN    FR    IT 

 










Legend :    VFR   Marginal VFR   IFR   Intensive IFR   Very Intensive IFR
Visi :
Ceiling :
>= 8 km
>= 3000ft
5 to 8 km
1000 to 3000 ft
1500m to 5 km
500 to 1000 ft
800 to 1500m
200 to 500 ft
< 800m
< 200 ft
Symbols :   Thunderstorms  Fog  Heavy snow  Heavy precipitations  Wind > 20 kt
SIGMETs :     Misc.  Thunderstorms  Icing  Turbulence  Mountain Waves  Volcanic Ashes






- Airport Elevation : 101 ft
- IATA code : HAD


ESMT - Halmstad

CURRENT METAR :
  • 201120Z 09005KT 050V110 9999 FEW047 BKN053 08/05 Q1021

EXPIRED METARs :
  • 201050Z 08007KT 9999 BKN047 07/05 Q1021
  • 201020Z 09005KT 9999 BKN019 BKN048 07/05 Q1022
  • 200950Z 10006KT 9999 FEW017 BKN048 07/05 Q1022
  • 200920Z 12004KT 080V140 9999 BKN016 08/05 Q1022
  • 200850Z 13006KT 9999 BKN015 07/05 Q1022

TAF TAF ESMT
Valid from the 20 at 12:00 until the 20 at 21:00 UTC


201102Z 2012/2021 11008KT 9999 BKN015
BECMG 2012/2015 4000 -RADZ BR BKN006
TEMPO 2015/2021 BKN012



MET'MAP, your aeronautical weather chart ! - Copyright ORBIFLY December 2007 - Disclaimer

ORBIFLY MET'MAP TEAM :

Programming & Development : Alexandra Zaïnal
Concept & Development : Baudouin d'Aumeries
Co-Development & Prog : Marc-Olivier Méhu
Technical & hardware support : Manuel Goepfert

Contact : metmap@orbifly.com




SOURCES & CREDITS :

   NOAA